Nearby METAR Reports

 

KADS - Dallas/Addison, Texas, USA
Distance from station: SSW 10mi, 16km
Updated: Fri, 18-Aug-2017 1:35am CDT
Clear
Clear
 Wind from ENE
Wind: ENE 3 mph , 6 km/h
Temperature: 79°F , 26°C
Dew Point: 70°F , 21°C
Humidity: 74%
Barometer: 30.01 inHg , 1016.3 hPa
Clouds: Clear
Visibility: 10 miles , 16 km
2017/08/18 06:35 KADS 180635Z AUTO 06003KT 10SM CLR 26/21 A3001 RMK AO2 T02580206
KTKI - Mckinney, Texas, USA
Distance from station: ENE 11mi, 18km
Updated: Fri, 18-Aug-2017 1:53am CDT
Clear
Clear
 Wind from calm
Wind: Calm
Temperature: 75°F , 24°C
Dew Point: 75°F , 24°C
Humidity: 100%
Barometer: 29.99 inHg , 1015.6 hPa
Clouds: Clear
Visibility: 10 miles , 16 km
2017/08/18 06:53 KTKI 180653Z AUTO 00000KT 10SM CLR 24/24 A2999 RMK AO2 SLP152 T02440239 $
 
KDAL - Dallas/Love Fld, Texas, USA
Distance from station: SSW 18mi, 30km
Updated: Fri, 18-Aug-2017 1:53am CDT
Overcast
Overcast
 Wind from ESE
Wind: ESE 6 mph , 9 km/h
Temperature: 79°F , 26°C
Dew Point: 70°F , 21°C
Humidity: 74%
Barometer: 29.99 inHg , 1015.6 hPa
Clouds: Overcast
Visibility: 10 miles , 16 km
Cloud details: Mostly cloudy 24000 ft
Overcast 30000 ft
2017/08/18 06:53 KDAL 180653Z 11005KT 10SM BKN240 OVC300 26/21 A2999 RMK AO2 SLP147 T02610211 $
KDFW - Dallas/Ft Worth, Texas, USA
Distance from station: SW 21mi, 34km
Updated: Fri, 18-Aug-2017 1:53am CDT
Mostly cloudy
Mostly cloudy
 Wind from SSE
Wind: SSE 3 mph , 6 km/h
Temperature: 79°F , 26°C
Dew Point: 72°F , 22°C
Humidity: 79%
Barometer: 29.98 inHg , 1015.2 hPa
Clouds: Mostly cloudy
Visibility: 10 miles , 16 km
Cloud details: Mostly cloudy 19000 ft
Mostly cloudy 25000 ft
2017/08/18 06:53 KDFW 180653Z 15003KT 10SM BKN190 BKN250 26/22 A2998 RMK AO2 SLP143 T02560217
 
KF46 - Rockwall, Texas, USA
Distance from station: ESE 22mi, 35km
Updated: Fri, 18-Aug-2017 1:35am CDT
Clear
Clear
 Wind from SSW
Wind: SSW 8 mph , 13 km/h
Temperature: 77°F , 25°C
Dew Point: 73°F , 23°C
Humidity: 89%
Barometer: 30.00 inHg , 1015.9 hPa
Clouds: Clear
Visibility: 10 miles , 16 km
2017/08/18 06:35 KF46 180635Z AUTO 20007KT 10SM CLR 25/23 A3000 RMK AO2 T02460227
KDTO - Denton, Texas, USA
Distance from station: WNW 27mi, 43km
Updated: Fri, 18-Aug-2017 1:53am CDT
Clear
Clear
 Wind from calm
Wind: Calm
Temperature: 73°F , 23°C
Dew Point: 72°F , 22°C
Humidity: 94%
Barometer: 29.99 inHg , 1015.6 hPa
Clouds: Clear
Visibility: 10 miles , 16 km
2017/08/18 06:53 KDTO 180653Z AUTO 00000KT 10SM CLR 23/22 A2999 RMK AO2 SLP146 T02330222
 
KHQZ - Mesquite, Texas, USA
Distance from station: SSE 28mi, 44km
Updated: Fri, 18-Aug-2017 1:35am CDT

 Wind from calm
Wind: Calm
Temperature: 75°F , 24°C
Dew Point: 73°F , 23°C
Humidity: 94%
Barometer: 30.00 inHg , 1015.9 hPa
Visibility: 10 miles , 16 km
2017/08/18 06:35 KHQZ 180635Z AUTO 00000KT 10SM 24/23 A3000 RMK AO1 T02400226
KRBD - Dallas/Redbird, Texas, USA
Distance from station: SSW 30mi, 48km
Updated: Fri, 18-Aug-2017 1:53am CDT
Clear
Clear
 Wind from ESE
Wind: ESE 5 mph , 7 km/h
Temperature: 75°F , 24°C
Dew Point: 72°F , 22°C
Humidity: 89%
Barometer: 29.98 inHg , 1015.2 hPa
Clouds: Clear
Visibility: 10 miles , 16 km
2017/08/18 06:53 KRBD 180653Z AUTO 12004KT 10SM CLR 24/22 A2998 RMK AO2 SLP144 T02440222
 
KGPM - Grand Prairie, Texas, USA
Distance from station: SSW 33mi, 53km
Updated: Fri, 18-Aug-2017 1:35am CDT
Clear
Clear
 Wind from calm
Wind: Calm
Temperature: 75°F , 24°C
Dew Point: 70°F , 21°C
Humidity: 83%
Barometer: 30.00 inHg , 1015.9 hPa
Clouds: Clear
Visibility: 10 miles , 16 km
2017/08/18 06:35 KGPM 180635Z AUTO 00000KT 10SM CLR 24/21 A3000 RMK AO2 T02410205
KAFW - Ft Worth/Allianc, Texas, USA
Distance from station: WSW 34mi, 55km
Updated: Fri, 18-Aug-2017 12:53am CDT
Mostly cloudy
Mostly cloudy
 Wind from calm
Wind: Calm
Temperature: 73°F , 23°C
Dew Point: 70°F , 21°C
Humidity: 89%
Barometer: 29.99 inHg , 1015.6 hPa
Clouds: Mostly cloudy
Visibility: 10 miles , 16 km
Cloud details: Mostly cloudy 25000 ft
2017/08/18 05:53 KAFW 180553Z 00000KT 10SM BKN250 23/21 A2999 RMK AO2 SLP140 T02280211 10256 20222 403610222 58001
 
KLNC - Lancaster, Texas, USA
Distance from station: S 36mi, 58km
Updated: Fri, 18-Aug-2017 1:35am CDT
Clear
Clear
 Wind from calm
Wind: Calm
Temperature: 75°F , 24°C
Dew Point: 72°F , 22°C
Humidity: 89%
Barometer: 30.01 inHg , 1016.3 hPa
Clouds: Clear
Visibility: 10 miles , 16 km
2017/08/18 06:35 KLNC 180635Z AUTO 00000KT 10SM CLR 24/22 A3001 RMK AO2 T02390220
KGKY - Arlington, Texas, USA
Distance from station: SSW 36mi, 59km
Updated: Fri, 18-Aug-2017 1:53am CDT
Few Clouds
Few Clouds
 Wind from WNW
Wind: WNW 3 mph , 6 km/h
Temperature: 75°F , 24°C
Dew Point: 73°F , 23°C
Humidity: 94%
Barometer: 30.00 inHg , 1015.9 hPa
Clouds: Few Clouds
Visibility: 10 miles , 16 km
Cloud details: Few Clouds 12000 ft
2017/08/18 06:53 KGKY 180653Z AUTO 30003KT 10SM FEW120 24/23 A3000 RMK AO2 SLP148 T02390228 $
 
KTRL - Terrell, Texas, USA
Distance from station: SE 39mi, 63km
Updated: Fri, 18-Aug-2017 1:53am CDT
Clear
Clear
 Wind from calm
Wind: Calm
Temperature: 79°F , 26°C
Dew Point: 72°F , 22°C
Humidity: 79%
Barometer: 29.99 inHg , 1015.6 hPa
Clouds: Clear
Visibility: 10 miles , 16 km
2017/08/18 06:53 KTRL 180653Z AUTO 00000KT 10SM CLR 26/22 A2999 RMK AO2 SLP150 T02560222 PNO $
KGVT - Greenville/Major, Texas, USA
Distance from station: E 40mi, 64km
Updated: Fri, 18-Aug-2017 1:35am CDT
Clear
Clear
 Wind from calm
Wind: Calm
Temperature: 81°F , 27°C
Heat Index: 89°F , 32°C
Dew Point: 79°F , 26°C
Humidity: 94%
Barometer: 30.00 inHg , 1015.9 hPa
Clouds: Clear
Visibility: 10 miles , 16 km
2017/08/18 06:35 KGVT 180635Z AUTO 00000KT 10SM CLR 27/26 A3000 RMK AO2
 
KFTW - Fort Worth, Texas, USA
Distance from station: WSW 40mi, 65km
Updated: Fri, 18-Aug-2017 1:53am CDT
Clear
Clear
 Wind from ENE
Wind: ENE 5 mph , 7 km/h
Temperature: 77°F , 25°C
Dew Point: 72°F , 22°C
Humidity: 83%
Barometer: 29.98 inHg , 1015.2 hPa
Clouds: Clear
Visibility: 10 miles , 16 km
2017/08/18 06:53 KFTW 180653Z 07004KT 10SM CLR 25/22 A2998 RMK AO2 SLP143 T02500217
KGYI - Sherman/Denison, Texas, USA
Distance from station: N 43mi, 69km
Updated: Fri, 18-Aug-2017 1:35am CDT
Clear
Clear
 Wind from SSE
Wind: SSE 5 mph , 7 km/h
Temperature: 77°F , 25°C
Dew Point: 77°F , 25°C
Humidity: 100%
Barometer: 30.00 inHg , 1015.9 hPa
Clouds: Clear
Visibility: 7 miles , 11 km
2017/08/18 06:35 KGYI 180635Z AUTO 15004KT 7SM CLR 25/25 A3000 RMK AO2 T02520245
 
KNFW - Fort Worth Nas, Texas, USA
Distance from station: WSW 45mi, 73km
Updated: Fri, 18-Aug-2017 12:52am CDT
Clear
Clear
 Wind from ESE
Wind: ESE 5 mph , 7 km/h
Temperature: 77°F , 25°C
Dew Point: 68°F , 20°C
Humidity: 74%
Barometer: 30.00 inHg , 1015.9 hPa
Clouds: Clear
Visibility: 10 miles , 16 km
2017/08/18 05:52 KNFW 180552Z AUTO 12004KT 10SM CLR 25/20 A3000 RMK AO2 SLP141 T02500200 10261 20239 403670239 56001 $
KGLE - Gainesville, Texas, USA
Distance from station: NW 46mi, 74km
Updated: Fri, 18-Aug-2017 1:35am CDT
Clear
Clear
 Wind from SE
Wind: SE 3 mph , 6 km/h
Temperature: 72°F , 22°C
Dew Point: 68°F , 20°C
Humidity: 88%
Barometer: 30.02 inHg , 1016.6 hPa
Clouds: Clear
Visibility: 10 miles , 16 km
2017/08/18 06:35 KGLE 180635Z AUTO 13003KT 10SM CLR 22/20 A3002 RMK AO2 T02200204
 
KJWY - Midlothian/Wax, Texas, USA
Distance from station: SSW 46mi, 74km
Updated: Fri, 18-Aug-2017 1:35am CDT
Clear
Clear
 Wind from E
Wind: E 3 mph , 6 km/h
Temperature: 73°F , 23°C
Dew Point: 73°F , 23°C
Humidity: 100%
Barometer: 30.01 inHg , 1016.3 hPa
Clouds: Clear
Visibility: 10 miles , 16 km
2017/08/18 06:35 KJWY 180635Z AUTO 09003KT 10SM CLR 23/23 A3001 RMK AO2 T02330226
KFWS - Fort Worth/88d, Texas, USA
Distance from station: SW 49mi, 79km
Updated: Fri, 18-Aug-2017 1:35am CDT
Clear
Clear
 Wind from calm
Wind: Calm
Temperature: 73°F , 23°C
Dew Point: 70°F , 21°C
Humidity: 89%
Barometer: 30.00 inHg , 1015.9 hPa
Clouds: Clear
Visibility: 7 miles , 11 km
2017/08/18 06:35 KFWS 180635Z AUTO 00000KT 7SM CLR 23/21 A3000 RMK AO2 T02320210